Time;durP1;ratioP1;P1;durP2;ratioP2;P2;SDS_P1;SDS_P2;PMS_P1;PMS_P2;Temp;Humidity;BMP_temperature;BMP_pressure;BME280_temperature;BME280_humidity;BME280_pressure;Samples;Min_cycle;Max_cycle;Signal;HPM_P1;HPM_P2
2022/09/18 00:01:18;;;;;;;8.82;2.00;;;;;;;10.85;90.78;101515.63;5035891;28;20385;-88
2022/09/18 00:03:46;;;;;;;6.60;1.70;;;;;;;10.80;90.87;101504.75;5049285;28;20025;-89
2022/09/18 00:06:17;;;;;;;8.77;1.90;;;;;;;10.80;91.60;101512.53;5049453;28;20483;-89
2022/09/18 00:08:43;;;;;;;9.35;1.65;;;;;;;10.89;91.69;101511.88;5047693;28;20041;-88
2022/09/18 00:11:10;;;;;;;11.32;2.42;;;;;;;10.85;91.88;101513.03;5038053;28;20602;-88
2022/09/18 00:13:37;;;;;;;7.40;1.60;;;;;;;10.89;91.40;101509.28;5031152;28;20029;-89
2022/09/18 00:16:05;;;;;;;11.85;2.70;;;;;;;10.85;91.54;101515.63;5048777;28;20325;-87
2022/09/18 00:18:31;;;;;;;7.28;1.92;;;;;;;10.91;91.68;101517.78;5041904;28;20024;-88
2022/09/18 00:21:14;;;;;;;9.25;2.00;;;;;;;10.86;91.87;101507.75;5030292;28;20468;-88
2022/09/18 00:23:40;;;;;;;8.50;2.50;;;;;;;10.94;90.67;101520.16;5048586;28;20045;-88
2022/09/18 00:26:07;;;;;;;9.20;1.40;;;;;;;10.98;91.61;101516.41;5050397;28;20048;-86
2022/09/18 00:28:33;;;;;;;7.15;1.85;;;;;;;10.93;91.06;101508.13;5048910;28;20029;-87
2022/09/18 00:31:10;;;;;;;6.25;1.77;;;;;;;11.05;90.56;101502.03;5048521;28;20464;-88
2022/09/18 00:33:36;;;;;;;9.07;2.00;;;;;;;10.92;91.76;101480.50;5048983;28;20041;-89
2022/09/18 00:36:04;;;;;;;10.60;2.15;;;;;;;10.98;91.67;101495.63;5037399;28;20520;-87
2022/09/18 00:38:31;;;;;;;6.03;1.45;;;;;;;10.98;91.42;101498.25;5045643;28;20459;-88
2022/09/18 00:40:57;;;;;;;9.05;2.25;;;;;;;10.94;91.61;101496.78;5029758;28;20074;-86
2022/09/18 00:43:25;;;;;;;9.38;2.25;;;;;;;10.92;91.65;101496.09;5028805;28;20032;-88
2022/09/18 00:45:58;;;;;;;6.90;1.65;;;;;;;11.00;91.86;101504.13;5028478;28;20464;-84
2022/09/18 00:48:29;;;;;;;8.85;1.75;;;;;;;11.04;91.98;101513.38;5045463;28;20055;-88
2022/09/18 00:50:55;;;;;;;10.10;2.13;;;;;;;11.06;91.23;101518.44;5044967;28;20034;-90
2022/09/18 00:53:21;;;;;;;9.82;2.25;;;;;;;10.95;90.79;101516.63;5034493;28;20138;-86
2022/09/18 00:55:46;;;;;;;8.57;1.98;;;;;;;10.81;90.62;101509.00;5024015;28;20067;-85
2022/09/18 00:58:12;;;;;;;8.43;1.80;;;;;;;10.90;90.82;101522.16;5018093;28;20343;-88
2022/09/18 01:00:38;;;;;;;7.45;1.70;;;;;;;10.88;91.33;101512.81;5026619;28;20515;-88
2022/09/18 01:03:04;;;;;;;8.32;2.13;;;;;;;10.82;90.77;101505.47;5036665;28;20017;-87
2022/09/18 01:05:41;;;;;;;7.95;1.60;;;;;;;10.93;91.77;101513.31;5020149;28;20495;-88
2022/09/18 01:08:24;;;;;;;6.75;1.63;;;;;;;10.87;92.30;101513.75;5046220;28;20025;-86
2022/09/18 01:11:27;;;;;;;9.50;2.13;;;;;;;10.93;92.53;101518.50;5028849;28;20025;-87
2022/09/18 01:14:11;;;;;;;7.32;1.98;;;;;;;10.93;92.39;101515.91;5039642;28;20064;-87
2022/09/18 01:17:15;;;;;;;7.63;1.90;;;;;;;10.90;92.24;101513.53;5031112;28;20088;-88
2022/09/18 01:19:59;;;;;;;5.20;1.17;;;;;;;10.96;91.33;101507.09;5035899;28;20056;-86
2022/09/18 01:23:09;;;;;;;9.80;2.10;;;;;;;10.96;92.42;101513.09;5035641;28;20017;-89
2022/09/18 01:26:13;;;;;;;10.00;2.15;;;;;;;10.93;91.60;101508.13;5025548;28;20028;-88
2022/09/18 01:28:46;;;;;;;8.38;2.00;;;;;;;10.83;92.12;101502.75;5041864;28;20045;-87
2022/09/18 01:31:33;;;;;;;7.13;1.70;;;;;;;10.99;91.91;101507.69;5048799;28;20192;-88
2022/09/18 01:34:14;;;;;;;10.13;2.17;;;;;;;10.86;92.59;101496.53;5047834;28;20040;-86
2022/09/18 01:36:46;;;;;;;9.05;1.60;;;;;;;10.93;91.33;101502.09;5028815;28;20484;-82
2022/09/18 01:39:31;;;;;;;7.68;1.63;;;;;;;10.92;92.00;101511.66;5046192;28;20056;-82
2022/09/18 01:41:59;;;;;;;9.98;2.05;;;;;;;10.94;92.43;101509.78;5027889;28;20029;-81
2022/09/18 01:44:30;;;;;;;7.38;1.90;;;;;;;10.96;91.44;101507.09;5050120;28;20049;-81
2022/09/18 01:46:58;;;;;;;6.93;1.52;;;;;;;10.98;92.13;101508.63;5045175;28;20070;-82
2022/09/18 01:49:29;;;;;;;8.40;1.97;;;;;;;10.91;92.33;101515.19;5039767;28;20325;-81
2022/09/18 01:52:04;;;;;;;7.75;1.60;;;;;;;10.95;92.16;101506.22;5028103;28;20275;-81
2022/09/18 01:54:35;;;;;;;9.30;2.20;;;;;;;10.87;91.89;101513.75;5035542;28;20112;-81
2022/09/18 01:57:12;;;;;;;8.90;2.35;;;;;;;10.93;93.40;101518.50;5019625;28;20481;-81
2022/09/18 01:59:45;;;;;;;5.67;1.63;;;;;;;10.96;93.42;101513.09;5027018;28;20465;-81
2022/09/18 02:02:18;;;;;;;8.63;1.98;;;;;;;10.92;93.16;101511.66;5031890;28;20045;-81
2022/09/18 02:04:46;;;;;;;8.43;1.27;;;;;;;10.98;92.93;101508.63;5025022;28;20036;-81
2022/09/18 02:07:20;;;;;;;6.20;1.88;;;;;;;10.93;93.18;101500.34;5018508;28;20029;-81
2022/09/18 02:09:46;;;;;;;7.82;1.70;;;;;;;10.92;93.26;101490.91;5036804;28;20100;-81
2022/09/18 02:12:31;;;;;;;7.97;1.92;;;;;;;10.95;92.83;101495.03;5026713;28;20132;-82
2022/09/18 02:15:04;;;;;;;5.30;1.20;;;;;;;10.93;93.63;101482.16;5036619;28;20055;-82
2022/09/18 02:17:40;;;;;;;9.55;1.85;;;;;;;10.82;93.64;101469.13;5025209;28;20045;-81
2022/09/18 02:20:12;;;;;;;5.43;1.27;;;;;;;10.87;93.91;101493.81;5024681;28;20025;-82
2022/09/18 02:22:44;;;;;;;8.30;1.92;;;;;;;10.80;93.66;101482.22;5025446;28;20560;-81
2022/09/18 02:25:15;;;;;;;6.55;1.67;;;;;;;10.81;93.17;101477.88;5030042;28;20025;-82
2022/09/18 02:27:41;;;;;;;7.47;1.55;;;;;;;10.78;93.80;101472.88;5025141;28;20037;-82
2022/09/18 02:30:08;;;;;;;6.40;1.58;;;;;;;10.82;93.47;101484.72;5026373;28;20029;-82
2022/09/18 02:32:38;;;;;;;6.78;1.45;;;;;;;10.90;93.58;101482.41;5026005;28;20029;-82
2022/09/18 02:35:06;;;;;;;8.00;1.60;;;;;;;10.87;92.81;101480.00;5025194;28;20400;-82
2022/09/18 02:37:48;;;;;;;5.85;1.27;;;;;;;10.88;92.95;101468.69;5006671;28;20041;-82
2022/09/18 02:40:33;;;;;;;6.85;1.40;;;;;;;10.95;92.77;101493.25;5017122;28;20026;-81
2022/09/18 02:43:41;;;;;;;5.88;1.75;;;;;;;10.95;92.47;101469.91;5011411;28;20037;-82
2022/09/18 02:46:14;;;;;;;8.40;1.63;;;;;;;10.90;92.84;101482.41;5019710;28;20520;-82
2022/09/18 02:48:46;;;;;;;7.03;1.60;;;;;;;10.94;92.84;101481.22;5025070;28;20025;-82
2022/09/18 02:51:34;;;;;;;7.25;1.95;;;;;;;10.98;94.36;101480.06;5020178;28;20365;-82
2022/09/18 02:54:10;;;;;;;7.13;1.33;;;;;;;10.93;93.43;101481.34;5022186;28;20030;-82
2022/09/18 02:56:49;;;;;;;7.55;1.67;;;;;;;10.87;93.26;101478.25;5030883;28;20461;-82
2022/09/18 02:59:20;;;;;;;7.60;1.42;;;;;;;10.82;93.76;101474.31;5024458;28;20053;-81
2022/09/18 03:01:47;;;;;;;8.43;1.52;;;;;;;10.87;93.19;101474.81;5038623;28;20076;-83
2022/09/18 03:04:18;;;;;;;6.18;1.50;;;;;;;10.84;92.36;101482.84;5019503;28;20385;-82
2022/09/18 03:06:43;;;;;;;6.75;1.45;;;;;;;10.87;92.10;101483.44;5036713;28;20029;-82
2022/09/18 03:09:09;;;;;;;7.72;1.48;;;;;;;10.81;92.64;101457.94;5028412;28;20048;-82
2022/09/18 03:11:35;;;;;;;7.93;1.55;;;;;;;10.86;92.94;101471.41;5044933;28;20035;-83
2022/09/18 03:14:01;;;;;;;8.40;1.58;;;;;;;10.83;93.39;101465.59;5027607;28;20029;-82
2022/09/18 03:16:27;;;;;;;7.68;1.58;;;;;;;10.83;93.90;101463.00;5020408;28;20099;-82
2022/09/18 03:18:52;;;;;;;8.55;1.55;;;;;;;10.94;94.66;101467.41;5027030;28;20022;-82
2022/09/18 03:21:17;;;;;;;10.20;2.30;;;;;;;10.83;94.45;101450.03;5025505;28;20108;-83
2022/09/18 03:23:43;;;;;;;8.57;2.15;;;;;;;10.75;94.87;101441.97;5035902;28;20033;-82
2022/09/18 03:26:08;;;;;;;9.35;1.75;;;;;;;10.82;94.90;101443.19;5046278;28;20032;-82
2022/09/18 03:28:34;;;;;;;7.15;1.98;;;;;;;10.81;94.84;101457.09;5032113;28;20354;-82
2022/09/18 03:30:59;;;;;;;8.63;1.98;;;;;;;10.78;95.03;101442.59;5051333;28;20372;-83
2022/09/18 03:33:24;;;;;;;8.07;2.10;;;;;;;10.81;95.05;101441.53;5051426;28;20036;-82
2022/09/18 03:35:50;;;;;;;9.43;2.10;;;;;;;10.80;95.47;101437.28;5040319;28;20111;-82
2022/09/18 03:38:15;;;;;;;9.00;2.42;;;;;;;10.80;95.18;101445.91;5036213;28;20033;-83
2022/09/18 03:40:44;;;;;;;7.35;2.03;;;;;;;10.79;95.21;101439.06;5028531;28;20069;-82
2022/09/18 03:43:10;;;;;;;8.38;2.00;;;;;;;10.74;95.64;101440.34;5048420;28;20229;-83
2022/09/18 03:45:36;;;;;;;8.20;1.88;;;;;;;10.81;95.53;101444.13;5046253;28;20025;-82
2022/09/18 03:48:01;;;;;;;7.10;2.00;;;;;;;10.81;95.86;101450.16;5042744;28;20044;-82
2022/09/18 03:50:27;;;;;;;4.90;1.40;;;;;;;10.85;95.70;101438.63;5045156;28;20024;-82
2022/09/18 03:52:52;;;;;;;8.38;2.33;;;;;;;10.78;95.63;101436.56;5028106;28;20036;-82
2022/09/18 03:55:17;;;;;;;6.38;1.60;;;;;;;10.82;94.97;101443.19;5052146;28;20432;-82
2022/09/18 03:57:45;;;;;;;8.80;2.00;;;;;;;10.75;96.49;101447.16;5048053;28;20072;-82
2022/09/18 04:00:11;;;;;;;9.63;1.67;;;;;;;10.83;95.96;101450.03;5050689;28;20168;-82
2022/09/18 04:02:36;;;;;;;9.15;2.28;;;;;;;10.75;96.44;101436.78;5050041;28;20032;-82
2022/09/18 04:05:04;;;;;;;7.45;1.85;;;;;;;10.77;96.15;101440.09;5050285;28;20448;-82
2022/09/18 04:07:30;;;;;;;6.15;1.77;;;;;;;10.77;96.05;101440.09;5055282;28;20469;-82
2022/09/18 04:09:55;;;;;;;7.90;1.90;;;;;;;10.79;96.19;101430.44;5056717;28;20033;-82
2022/09/18 04:12:21;;;;;;;6.93;1.48;;;;;;;10.76;96.24;101438.44;5048856;28;20020;-82
2022/09/18 04:14:46;;;;;;;7.18;1.70;;;;;;;10.73;96.57;101420.53;5041026;28;20107;-82
2022/09/18 04:17:12;;;;;;;5.55;1.27;;;;;;;10.83;96.68;101424.06;5033951;28;20029;-82
2022/09/18 04:19:37;;;;;;;7.05;1.58;;;;;;;10.77;96.17;101433.13;5051993;28;20104;-83
2022/09/18 04:22:03;;;;;;;8.90;1.38;;;;;;;10.82;96.40;101430.22;5041811;28;20028;-82
2022/09/18 04:24:28;;;;;;;8.68;1.70;;;;;;;10.80;96.42;101429.50;5038433;28;20107;-82
2022/09/18 04:26:54;;;;;;;6.85;1.50;;;;;;;10.75;96.41;101431.59;5048129;28;20024;-82
2022/09/18 04:29:19;;;;;;;5.93;1.35;;;;;;;10.83;96.21;101434.47;5031286;28;20056;-82
2022/09/18 04:31:44;;;;;;;6.00;1.48;;;;;;;10.81;95.78;101425.97;5045043;28;20031;-82
2022/09/18 04:34:12;;;;;;;7.85;1.60;;;;;;;10.84;95.76;101438.72;5048488;28;20041;-82
2022/09/18 04:36:38;;;;;;;10.23;1.73;;;;;;;10.78;95.81;101426.19;5045007;28;20021;-82
2022/09/18 04:39:03;;;;;;;6.47;1.10;;;;;;;10.89;95.45;101436.59;5042656;28;20029;-82
2022/09/18 04:41:29;;;;;;;9.23;1.63;;;;;;;10.72;96.19;101429.22;5046191;28;20469;-82
2022/09/18 04:43:54;;;;;;;7.20;1.42;;;;;;;10.83;96.34;101435.28;5046835;28;20025;-82
2022/09/18 04:46:20;;;;;;;5.65;1.50;;;;;;;10.84;95.95;101446.53;5040596;28;20029;-82
2022/09/18 04:48:47;;;;;;;7.00;1.70;;;;;;;10.77;96.34;101440.09;5041114;28;20485;-82
2022/09/18 04:51:16;;;;;;;7.53;1.75;;;;;;;10.77;96.33;101424.53;5045971;28;20021;-82
2022/09/18 04:53:41;;;;;;;8.57;1.73;;;;;;;10.78;96.65;101427.03;5044648;28;20032;-82
2022/09/18 04:56:06;;;;;;;6.72;1.20;;;;;;;10.85;96.12;101423.03;5029324;28;20025;-82
2022/09/18 04:58:32;;;;;;;4.47;1.25;;;;;;;10.90;96.66;101422.72;5029350;28;20029;-82
2022/09/18 05:00:58;;;;;;;7.90;1.80;;;;;;;10.85;96.90;101437.78;5031210;28;20559;-82
2022/09/18 05:03:23;;;;;;;6.63;1.38;;;;;;;10.88;96.57;101419.38;5029396;28;20033;-82
2022/09/18 05:05:50;;;;;;;6.25;1.40;;;;;;;10.84;96.79;101423.16;5047006;28;20526;-82
2022/09/18 05:08:16;;;;;;;7.65;1.50;;;;;;;10.85;95.76;101419.63;5049392;28;20115;-82
2022/09/18 05:10:42;;;;;;;6.72;1.30;;;;;;;10.82;95.50;101425.84;5046810;28;20024;-82
2022/09/18 05:13:07;;;;;;;6.63;1.38;;;;;;;10.95;95.53;101427.53;5046876;28;20086;-82
2022/09/18 05:15:33;;;;;;;4.68;1.02;;;;;;;10.95;95.24;101438.75;5033700;28;20557;-82
2022/09/18 05:18:06;;;;;;;7.03;1.20;;;;;;;10.92;95.59;101436.41;5041184;28;20025;-83
2022/09/18 05:20:33;;;;;;;6.60;1.25;;;;;;;10.92;95.98;101428.59;5029344;28;20032;-83
2022/09/18 05:22:59;;;;;;;4.93;0.80;;;;;;;10.95;94.88;101428.38;5028851;28;20049;-82
2022/09/18 05:25:27;;;;;;;7.65;1.40;;;;;;;10.92;94.69;101444.19;5038637;28;20078;-82
2022/09/18 05:27:58;;;;;;;5.63;1.10;;;;;;;10.94;95.46;101462.22;5040312;28;20036;-82
2022/09/18 05:30:24;;;;;;;7.75;2.10;;;;;;;10.85;94.42;101463.75;5054852;28;20745;-82
2022/09/18 05:33:04;;;;;;;7.45;2.30;;;;;;;10.84;94.96;101456.91;5030919;28;20377;-82
2022/09/18 05:35:32;;;;;;;6.30;1.65;;;;;;;10.90;95.01;101440.88;5034162;28;20797;-81
2022/09/18 05:37:57;;;;;;;7.43;2.20;;;;;;;10.93;94.86;101435.44;5020550;28;20515;-82
2022/09/18 05:40:29;;;;;;;5.00;2.08;;;;;;;10.97;94.87;101447.28;5037935;28;20155;-82
2022/09/18 05:42:55;;;;;;;7.32;2.08;;;;;;;10.81;95.21;101437.19;5019886;28;20040;-81
2022/09/18 05:45:21;;;;;;;6.03;1.38;;;;;;;10.84;94.45;101441.34;5026429;28;20547;-82
2022/09/18 05:47:56;;;;;;;6.43;1.55;;;;;;;10.84;94.58;101441.34;5045178;28;20043;-82
2022/09/18 05:50:23;;;;;;;5.10;1.40;;;;;;;10.75;94.30;101435.03;5043554;28;20048;-83
2022/09/18 05:53:03;;;;;;;6.00;1.20;;;;;;;10.93;94.41;101445.00;5028076;28;20052;-82
2022/09/18 05:55:29;;;;;;;6.60;1.40;;;;;;;10.82;95.00;101435.41;5051393;28;20047;-82
2022/09/18 05:57:56;;;;;;;5.20;1.35;;;;;;;10.81;95.45;101418.19;5045862;28;20021;-83
2022/09/18 06:00:25;;;;;;;6.45;1.50;;;;;;;10.83;94.83;101430.09;5034462;28;20053;-82
2022/09/18 06:03:02;;;;;;;5.68;1.60;;;;;;;10.90;95.51;101435.69;5047282;28;20048;-82
2022/09/18 06:05:30;;;;;;;7.28;1.50;;;;;;;10.72;95.83;101431.81;5018148;28;20032;-82
2022/09/18 06:07:57;;;;;;;3.92;1.05;;;;;;;10.79;95.23;101422.66;5031588;28;20060;-82
2022/09/18 06:10:23;;;;;;;4.60;1.00;;;;;;;10.82;95.04;101425.03;5051329;28;20029;-82
2022/09/18 06:12:48;;;;;;;7.15;1.27;;;;;;;10.70;94.96;101413.78;5023492;28;20033;-82
2022/09/18 06:15:15;;;;;;;8.27;1.52;;;;;;;10.75;94.66;101421.22;5036801;28;20468;-82
2022/09/18 06:17:42;;;;;;;4.05;0.93;;;;;;;10.86;94.80;101418.69;5030651;28;20041;-82
2022/09/18 06:20:08;;;;;;;5.75;1.30;;;;;;;10.81;94.60;101413.00;5043097;28;20025;-82
2022/09/18 06:22:35;;;;;;;4.90;1.10;;;;;;;10.83;95.55;101424.06;5047376;28;20492;-82
2022/09/18 06:25:00;;;;;;;8.27;1.40;;;;;;;10.90;95.39;101420.94;5024817;28;20845;-82
2022/09/18 06:27:26;;;;;;;4.28;1.33;;;;;;;10.91;95.13;101421.78;5034759;28;20028;-82
2022/09/18 06:29:52;;;;;;;6.53;1.40;;;;;;;10.84;94.43;101425.75;5025529;28;20040;-82
2022/09/18 06:32:19;;;;;;;4.90;1.20;;;;;;;10.91;94.18;101413.97;5038948;28;20477;-82
2022/09/18 06:34:44;;;;;;;5.45;1.00;;;;;;;10.90;94.78;101420.94;5024217;28;20032;-82
2022/09/18 06:37:10;;;;;;;4.03;1.10;;;;;;;10.98;94.98;101416.94;5037473;28;20361;-82
2022/09/18 06:39:36;;;;;;;3.70;0.88;;;;;;;11.07;94.22;101417.09;5030337;28;20076;-82
2022/09/18 06:42:01;;;;;;;3.58;1.30;;;;;;;10.96;95.25;101398.06;5042733;28;20048;-82
2022/09/18 06:44:26;;;;;;;4.97;1.13;;;;;;;11.06;94.21;101405.03;5046101;28;20028;-83
2022/09/18 06:46:52;;;;;;;4.85;1.02;;;;;;;11.20;94.91;101416.19;5028202;28;20047;-82
2022/09/18 06:49:17;;;;;;;4.38;1.15;;;;;;;11.12;95.37;101409.78;5038624;28;20514;-82
2022/09/18 06:51:44;;;;;;;3.92;1.00;;;;;;;11.17;95.69;101418.06;5043183;28;20048;-82
2022/09/18 06:54:12;;;;;;;6.57;1.10;;;;;;;11.15;95.38;101404.38;5047062;28;20496;-82
2022/09/18 06:56:37;;;;;;;5.22;1.35;;;;;;;11.24;96.16;101415.00;5047346;28;20029;-82
2022/09/18 06:59:02;;;;;;;5.22;1.25;;;;;;;11.37;95.71;101418.34;5037748;28;20071;-82
2022/09/18 07:01:28;;;;;;;5.85;1.20;;;;;;;11.30;95.35;101407.59;5022920;28;20075;-82
2022/09/18 07:03:53;;;;;;;5.70;1.33;;;;;;;11.37;94.92;101423.53;5041459;28;20179;-83
2022/09/18 07:06:18;;;;;;;7.20;1.42;;;;;;;11.33;95.08;101422.09;5036182;28;20078;-83
2022/09/18 07:08:44;;;;;;;6.07;1.30;;;;;;;11.36;94.66;101421.88;5049448;28;20017;-83
2022/09/18 07:11:09;;;;;;;6.30;1.45;;;;;;;11.36;94.86;101422.72;5040006;28;20040;-82
2022/09/18 07:13:36;;;;;;;6.18;1.38;;;;;;;11.45;94.68;101426.38;5047036;28;20436;-82
2022/09/18 07:16:02;;;;;;;4.45;1.20;;;;;;;11.42;94.84;101411.03;5048455;28;20051;-81
2022/09/18 07:18:28;;;;;;;6.45;1.40;;;;;;;11.46;94.47;101404.66;5050292;28;20025;-82
2022/09/18 07:20:53;;;;;;;6.35;1.20;;;;;;;11.51;95.37;101404.31;5031233;28;20131;-82
2022/09/18 07:23:18;;;;;;;5.15;1.48;;;;;;;11.60;94.78;101409.63;5048015;28;20456;-82
2022/09/18 07:25:45;;;;;;;4.35;1.48;;;;;;;11.61;95.06;101416.47;5030418;28;20090;-81
2022/09/18 07:28:11;;;;;;;7.18;1.38;;;;;;;11.55;93.97;101401.34;5045602;28;20025;-82
2022/09/18 07:30:37;;;;;;;4.47;1.02;;;;;;;11.68;94.29;101417.66;5041146;28;20468;-82
2022/09/18 07:33:04;;;;;;;5.13;1.10;;;;;;;11.71;94.16;101401.00;5037137;28;20033;-82
2022/09/18 07:35:31;;;;;;;5.43;1.27;;;;;;;11.74;93.67;101399.94;5040324;28;20033;-82
2022/09/18 07:38:01;;;;;;;7.25;1.30;;;;;;;11.78;94.17;101401.38;5031377;28;20059;-82
2022/09/18 07:40:27;;;;;;;4.95;1.27;;;;;;;11.81;93.53;101411.50;5024813;28;20048;-83
2022/09/18 07:42:58;;;;;;;4.72;1.00;;;;;;;11.78;93.31;101403.97;5036037;28;20029;-82
2022/09/18 07:45:23;;;;;;;4.00;1.00;;;;;;;11.75;93.68;101404.19;5039096;28;20029;-82
2022/09/18 07:47:49;;;;;;;6.13;1.02;;;;;;;11.72;93.83;101399.25;5033850;28;20500;-81
2022/09/18 07:50:14;;;;;;;7.18;1.20;;;;;;;11.67;91.88;101394.41;5041859;28;20029;-82
2022/09/18 07:52:55;;;;;;;5.00;1.05;;;;;;;11.80;92.95;101409.84;5033303;28;20055;-81
2022/09/18 07:55:22;;;;;;;6.43;1.25;;;;;;;11.78;93.76;101401.38;5033982;28;20032;-82
2022/09/18 07:57:54;;;;;;;6.10;1.30;;;;;;;11.73;93.27;101385.28;5042061;28;20060;-81
2022/09/18 08:00:20;;;;;;;4.85;1.02;;;;;;;11.82;92.94;101392.44;5042908;28;20056;-81
2022/09/18 08:02:45;;;;;;;6.28;1.15;;;;;;;11.81;92.87;101396.78;5027734;28;20017;-81
2022/09/18 08:05:10;;;;;;;5.40;1.17;;;;;;;11.78;92.13;101377.97;5033876;28;20072;-82
2022/09/18 08:07:36;;;;;;;5.25;1.17;;;;;;;11.87;92.86;101395.47;5039901;28;20016;-82
2022/09/18 08:10:04;;;;;;;5.53;1.20;;;;;;;11.90;93.79;101395.25;5038345;28;20087;-82
2022/09/18 08:12:30;;;;;;;6.18;1.10;;;;;;;11.93;94.55;101395.03;5031733;28;20938;-82
2022/09/18 08:14:56;;;;;;;6.43;1.33;;;;;;;11.93;93.72;101385.44;5030869;28;20028;-82
2022/09/18 08:17:22;;;;;;;6.63;1.38;;;;;;;12.04;94.42;101399.34;5037383;28;20190;-82
2022/09/18 08:19:47;;;;;;;6.82;1.40;;;;;;;11.95;94.14;101390.50;5032298;28;20465;-82
2022/09/18 08:22:12;;;;;;;6.15;1.40;;;;;;;12.07;94.40;101396.53;5036966;28;20421;-83
2022/09/18 08:24:38;;;;;;;5.38;1.27;;;;;;;12.10;94.88;101404.91;5036282;28;20037;-81
2022/09/18 08:27:03;;;;;;;6.07;1.10;;;;;;;12.15;94.42;101389.75;5033530;28;20325;-82
2022/09/18 08:29:29;;;;;;;8.15;1.35;;;;;;;12.17;94.04;101387.88;5040040;28;20520;-82
2022/09/18 08:31:55;;;;;;;4.22;1.02;;;;;;;12.21;92.99;101389.28;5034187;28;20432;-82
2022/09/18 08:34:20;;;;;;;6.95;1.52;;;;;;;12.28;92.50;101394.00;5037303;28;20097;-82
2022/09/18 08:36:46;;;;;;;4.93;1.10;;;;;;;12.33;91.37;101397.03;5044269;28;20033;-82
2022/09/18 08:39:12;;;;;;;6.00;1.30;;;;;;;12.46;91.30;101402.94;5043153;28;20096;-82
2022/09/18 08:42:12;;;;;;;6.00;1.30;;;;;;;12.59;92.07;101415.78;5025879;28;20465;-82
2022/09/18 08:44:51;;;;;;;6.35;1.17;;;;;;;12.54;91.29;101408.34;5032876;28;20032;-83
2022/09/18 08:47:22;;;;;;;5.65;1.35;;;;;;;12.65;90.15;101408.28;5046791;28;20023;-82
2022/09/18 08:49:57;;;;;;;6.88;1.20;;;;;;;12.66;90.13;101403.91;5047829;28;20029;-82
2022/09/18 08:52:27;;;;;;;6.45;1.50;;;;;;;12.57;89.89;101395.09;5044284;28;20021;-82
2022/09/18 08:55:05;;;;;;;5.55;1.20;;;;;;;12.60;89.13;101400.03;5039800;28;20040;-81
2022/09/18 08:57:44;;;;;;;7.28;1.50;;;;;;;12.63;87.42;101399.81;5045530;28;20063;-83
2022/09/18 09:00:43;;;;;;;7.25;1.80;;;;;;;12.64;88.81;101401.44;5033767;28;20543;-81
2022/09/18 09:03:30;;;;;;;5.47;1.17;;;;;;;12.56;87.81;101409.06;5034450;28;20478;-82
2022/09/18 09:06:00;;;;;;;7.60;1.83;;;;;;;12.50;88.66;101430.34;5044656;28;20064;-81
2022/09/18 09:08:52;;;;;;;7.55;1.60;;;;;;;12.48;89.96;101421.84;5046523;28;20548;-81
2022/09/18 09:11:33;;;;;;;6.95;1.48;;;;;;;12.44;91.51;101420.44;5027281;28;20056;-82
2022/09/18 09:14:33;;;;;;;10.73;1.80;;;;;;;12.42;93.14;101422.34;5050365;28;20032;-82
2022/09/18 09:17:03;;;;;;;9.85;1.90;;;;;;;12.23;93.93;101423.81;5029112;28;20369;-82
2022/09/18 09:20:04;;;;;;;7.28;1.60;;;;;;;12.29;95.74;101412.09;5042627;28;20076;-82
2022/09/18 09:22:56;;;;;;;5.65;1.20;;;;;;;12.23;94.26;101396.97;5034892;28;20476;-82
2022/09/18 09:25:24;;;;;;;5.90;1.20;;;;;;;12.29;94.49;101400.84;5025998;28;20029;-82
2022/09/18 09:28:16;;;;;;;5.95;1.40;;;;;;;12.18;94.07;101415.53;5047185;28;20484;-82
2022/09/18 09:30:45;;;;;;;6.97;1.35;;;;;;;12.19;94.29;101396.38;5050339;28;20050;-82
2022/09/18 09:33:10;;;;;;;;;;;;;;;12.43;93.37;101413.56;5053658;28;20021;-82
2022/09/18 09:35:44;;;;;;;6.68;1.52;;;;;;;12.28;92.97;101400.03;5034382;28;20390;-82
2022/09/18 09:38:21;;;;;;;4.32;1.38;;;;;;;12.37;94.72;101414.06;5039615;28;20104;-83
2022/09/18 09:40:51;;;;;;;5.35;1.45;;;;;;;12.27;95.29;101407.94;5053046;28;20060;-83
2022/09/18 09:43:26;;;;;;;5.40;1.35;;;;;;;12.30;95.12;101398.13;5051014;28;20540;-83
2022/09/18 09:45:55;;;;;;;6.13;1.50;;;;;;;12.11;94.46;101397.94;5046380;28;20032;-82
2022/09/18 09:48:26;;;;;;;4.78;1.20;;;;;;;12.12;94.94;101405.63;5042305;28;20021;-82
2022/09/18 09:51:16;;;;;;;7.45;1.55;;;;;;;12.07;95.11;101417.31;5042710;28;20130;-82
2022/09/18 09:53:42;;;;;;;7.30;1.33;;;;;;;12.07;94.15;101407.75;5027139;28;20063;-82
2022/09/18 09:56:30;;;;;;;5.60;1.40;;;;;;;12.13;95.52;101404.66;5028566;28;20033;-83
2022/09/18 09:59:32;;;;;;;7.38;1.77;;;;;;;12.16;96.40;101412.22;5022251;28;20049;-82
2022/09/18 10:02:03;;;;;;;4.13;1.10;;;;;;;12.02;94.47;101407.28;5039781;28;20056;-82
2022/09/18 10:04:50;;;;;;;6.82;1.55;;;;;;;12.09;95.00;101411.03;5041018;28;20036;-82
2022/09/18 10:07:38;;;;;;;5.28;1.50;;;;;;;12.03;94.88;101403.72;5037701;28;20113;-81
2022/09/18 10:10:29;;;;;;;5.67;1.53;;;;;;;12.01;95.65;101390.03;5021441;28;20029;-82
2022/09/18 10:12:59;;;;;;;4.75;1.25;;;;;;;12.00;95.97;101406.59;5036249;28;21248;-82
2022/09/18 10:15:39;;;;;;;6.55;1.10;;;;;;;11.95;95.69;101404.34;5014804;28;20059;-82
2022/09/18 10:18:12;;;;;;;5.13;1.00;;;;;;;11.86;95.72;101405.03;5025533;28;20037;-83
2022/09/18 10:20:40;;;;;;;5.25;1.10;;;;;;;11.90;95.49;101410.84;5045209;28;20345;-83
2022/09/18 10:23:29;;;;;;;5.30;1.10;;;;;;;11.99;95.22;101425.72;5032844;28;20131;-83
2022/09/18 10:25:58;;;;;;;5.30;1.30;;;;;;;11.83;94.95;101399.28;5033925;28;20025;-83
2022/09/18 10:28:28;;;;;;;8.70;1.40;;;;;;;11.79;94.61;101395.22;5045307;28;20052;-83
2022/09/18 10:31:09;;;;;;;4.85;1.40;;;;;;;11.78;95.42;101399.59;5028255;28;20032;-83
2022/09/18 10:33:40;;;;;;;5.68;1.40;;;;;;;11.91;95.57;101412.47;5042287;28;20029;-83
2022/09/18 10:36:14;;;;;;;5.38;1.20;;;;;;;11.98;96.74;101411.06;5044892;28;20033;-82
2022/09/18 10:38:40;;;;;;;7.40;1.50;;;;;;;11.90;96.72;101410.84;5043413;28;20048;-83
2022/09/18 10:41:34;;;;;;;7.15;1.67;;;;;;;12.05;96.10;101409.66;5038691;28;20414;-82
2022/09/18 10:44:23;;;;;;;6.25;1.40;;;;;;;12.09;96.38;101413.63;5035240;28;20033;-83
2022/09/18 10:46:57;;;;;;;5.25;1.50;;;;;;;12.10;96.56;101407.53;5034656;28;20021;-83
2022/09/18 10:49:36;;;;;;;8.05;1.67;;;;;;;12.07;96.00;101396.53;5038786;28;20028;-83
2022/09/18 10:52:20;;;;;;;;;;;;;;;12.20;95.34;101408.41;5032535;28;20017;-83
2022/09/18 10:55:00;;;;;;;6.93;1.67;;;;;;;12.19;96.71;101396.38;5035632;28;19963;-83
2022/09/18 10:57:34;;;;;;;7.63;1.75;;;;;;;12.17;96.65;101377.47;5030922;28;20028;-83
2022/09/18 11:00:04;;;;;;;7.15;1.90;;;;;;;12.26;96.34;101393.28;5042268;28;20076;-83
2022/09/18 11:02:40;;;;;;;5.43;1.63;;;;;;;12.21;94.24;101399.69;5023958;28;20029;-83
2022/09/18 11:05:16;;;;;;;8.25;1.75;;;;;;;12.16;94.58;101394.03;5026748;28;20048;-83
2022/09/18 11:07:54;;;;;;;7.70;1.40;;;;;;;12.25;95.53;101396.84;5038523;28;20370;-82
2022/09/18 11:10:27;;;;;;;7.05;1.67;;;;;;;12.27;94.94;101405.34;5042998;28;20039;-82
2022/09/18 11:12:59;;;;;;;6.35;1.65;;;;;;;12.28;95.12;101388.81;5035466;28;20025;-83
2022/09/18 11:15:30;;;;;;;6.72;1.40;;;;;;;12.26;94.21;101401.91;5039022;28;20140;-82
2022/09/18 11:17:58;;;;;;;6.13;1.42;;;;;;;12.33;94.54;101392.69;5046646;28;20423;-82
2022/09/18 11:20:40;;;;;;;6.22;1.55;;;;;;;12.38;94.28;101392.31;5043164;28;20029;-83
2022/09/18 11:23:18;;;;;;;6.25;1.75;;;;;;;12.45;93.63;101398.69;5037819;28;20044;-84
2022/09/18 11:25:44;;;;;;;6.78;1.75;;;;;;;12.41;93.52;101405.91;5020140;28;20048;-83
2022/09/18 11:28:29;;;;;;;7.50;1.75;;;;;;;12.49;94.41;101408.69;5048825;28;20033;-84
2022/09/18 11:30:57;;;;;;;8.35;1.90;;;;;;;12.52;94.72;101412.84;5029186;28;20025;-83
2022/09/18 11:33:28;;;;;;;;;;;;;;;12.62;94.25;101408.56;5052797;28;20111;-84
2022/09/18 11:36:00;;;;;;;7.28;2.03;;;;;;;12.45;94.86;101390.88;5026206;28;20440;-83
2022/09/18 11:38:27;;;;;;;5.03;1.27;;;;;;;12.34;91.29;101393.50;5014245;28;20033;-84
2022/09/18 11:40:55;;;;;;;6.22;1.27;;;;;;;12.31;91.98;101398.94;5013660;28;20052;-83
2022/09/18 11:43:24;;;;;;;5.97;1.10;;;;;;;12.30;92.55;101386.91;5038544;28;20061;-83
2022/09/18 11:45:57;;;;;;;4.82;1.15;;;;;;;12.27;90.30;101394.94;5038358;28;20028;-84